sensor_id;sensor_type;location;lat;lon;timestamp;P1;durP1;ratioP1;P2;durP2;ratioP2
65533;SDS011;53640;55.838;37.184;2024-02-15T00:00:48;8.43;;;4.45;;
65533;SDS011;53640;55.838;37.184;2024-02-15T00:03:19;8.65;;;4.70;;
65533;SDS011;53640;55.838;37.184;2024-02-15T00:05:47;10.60;;;4.57;;
65533;SDS011;53640;55.838;37.184;2024-02-15T00:08:13;11.13;;;4.63;;
65533;SDS011;53640;55.838;37.184;2024-02-15T00:10:41;8.63;;;4.40;;
65533;SDS011;53640;55.838;37.184;2024-02-15T00:13:07;13.52;;;5.68;;
65533;SDS011;53640;55.838;37.184;2024-02-15T00:15:39;12.23;;;5.57;;
65533;SDS011;53640;55.838;37.184;2024-02-15T00:18:05;11.25;;;5.40;;
65533;SDS011;53640;55.838;37.184;2024-02-15T00:20:33;13.32;;;4.78;;
65533;SDS011;53640;55.838;37.184;2024-02-15T00:23:00;8.63;;;3.97;;
65533;SDS011;53640;55.838;37.184;2024-02-15T00:25:27;8.45;;;4.85;;
65533;SDS011;53640;55.838;37.184;2024-02-15T00:27:53;9.93;;;4.80;;
65533;SDS011;53640;55.838;37.184;2024-02-15T00:30:20;8.48;;;4.57;;
65533;SDS011;53640;55.838;37.184;2024-02-15T00:32:47;10.80;;;5.18;;
65533;SDS011;53640;55.838;37.184;2024-02-15T00:35:13;10.75;;;5.03;;
65533;SDS011;53640;55.838;37.184;2024-02-15T00:37:40;8.75;;;4.32;;
65533;SDS011;53640;55.838;37.184;2024-02-15T00:40:08;18.42;;;5.05;;
65533;SDS011;53640;55.838;37.184;2024-02-15T00:42:35;13.27;;;5.20;;
65533;SDS011;53640;55.838;37.184;2024-02-15T00:45:02;12.05;;;5.07;;
65533;SDS011;53640;55.838;37.184;2024-02-15T00:47:30;11.18;;;5.53;;
65533;SDS011;53640;55.838;37.184;2024-02-15T00:49:57;9.63;;;5.07;;
65533;SDS011;53640;55.838;37.184;2024-02-15T00:52:24;14.43;;;5.63;;
65533;SDS011;53640;55.838;37.184;2024-02-15T00:54:52;10.20;;;4.95;;
65533;SDS011;53640;55.838;37.184;2024-02-15T00:57:18;15.65;;;5.20;;
65533;SDS011;53640;55.838;37.184;2024-02-15T00:59:44;13.80;;;5.15;;
65533;SDS011;53640;55.838;37.184;2024-02-15T01:02:11;9.43;;;4.97;;
65533;SDS011;53640;55.838;37.184;2024-02-15T01:04:40;13.00;;;4.97;;
65533;SDS011;53640;55.838;37.184;2024-02-15T01:07:08;13.77;;;5.40;;
65533;SDS011;53640;55.838;37.184;2024-02-15T01:09:35;10.35;;;4.68;;
65533;SDS011;53640;55.838;37.184;2024-02-15T01:12:01;15.73;;;5.45;;
65533;SDS011;53640;55.838;37.184;2024-02-15T01:14:29;12.77;;;5.18;;
65533;SDS011;53640;55.838;37.184;2024-02-15T01:16:56;12.60;;;5.30;;
65533;SDS011;53640;55.838;37.184;2024-02-15T01:19:23;10.57;;;4.88;;
65533;SDS011;53640;55.838;37.184;2024-02-15T01:21:49;10.70;;;4.90;;
65533;SDS011;53640;55.838;37.184;2024-02-15T01:24:16;10.13;;;4.70;;
65533;SDS011;53640;55.838;37.184;2024-02-15T01:26:43;10.25;;;4.57;;
65533;SDS011;53640;55.838;37.184;2024-02-15T01:29:10;9.95;;;4.45;;
65533;SDS011;53640;55.838;37.184;2024-02-15T01:31:39;10.52;;;4.47;;
65533;SDS011;53640;55.838;37.184;2024-02-15T01:34:06;11.20;;;4.95;;
65533;SDS011;53640;55.838;37.184;2024-02-15T01:36:32;9.07;;;4.43;;
65533;SDS011;53640;55.838;37.184;2024-02-15T01:38:58;11.95;;;4.90;;
65533;SDS011;53640;55.838;37.184;2024-02-15T01:41:25;15.25;;;5.22;;
65533;SDS011;53640;55.838;37.184;2024-02-15T01:43:51;10.60;;;5.22;;
65533;SDS011;53640;55.838;37.184;2024-02-15T01:46:18;10.10;;;5.10;;
65533;SDS011;53640;55.838;37.184;2024-02-15T01:48:47;13.82;;;5.20;;
65533;SDS011;53640;55.838;37.184;2024-02-15T01:51:14;12.73;;;5.70;;
65533;SDS011;53640;55.838;37.184;2024-02-15T01:53:43;9.32;;;4.53;;
65533;SDS011;53640;55.838;37.184;2024-02-15T01:56:10;10.18;;;4.95;;
65533;SDS011;53640;55.838;37.184;2024-02-15T01:58:40;10.23;;;5.00;;
65533;SDS011;53640;55.838;37.184;2024-02-15T02:01:08;11.77;;;5.20;;
65533;SDS011;53640;55.838;37.184;2024-02-15T02:03:35;13.10;;;6.10;;
65533;SDS011;53640;55.838;37.184;2024-02-15T02:06:02;11.55;;;5.00;;
65533;SDS011;53640;55.838;37.184;2024-02-15T02:08:29;9.10;;;4.75;;
65533;SDS011;53640;55.838;37.184;2024-02-15T02:10:56;12.85;;;5.65;;
65533;SDS011;53640;55.838;37.184;2024-02-15T02:13:23;9.00;;;4.88;;
65533;SDS011;53640;55.838;37.184;2024-02-15T02:15:50;13.25;;;5.30;;
65533;SDS011;53640;55.838;37.184;2024-02-15T02:18:17;11.27;;;5.10;;
65533;SDS011;53640;55.838;37.184;2024-02-15T02:20:46;9.90;;;4.35;;
65533;SDS011;53640;55.838;37.184;2024-02-15T02:23:16;10.73;;;5.30;;
65533;SDS011;53640;55.838;37.184;2024-02-15T02:25:46;10.95;;;4.78;;
65533;SDS011;53640;55.838;37.184;2024-02-15T02:28:15;14.55;;;5.70;;
65533;SDS011;53640;55.838;37.184;2024-02-15T02:30:44;10.52;;;5.10;;
65533;SDS011;53640;55.838;37.184;2024-02-15T02:33:12;11.57;;;4.75;;
65533;SDS011;53640;55.838;37.184;2024-02-15T02:35:46;12.65;;;4.95;;
65533;SDS011;53640;55.838;37.184;2024-02-15T02:38:14;13.00;;;5.63;;
65533;SDS011;53640;55.838;37.184;2024-02-15T02:40:46;16.55;;;5.85;;
65533;SDS011;53640;55.838;37.184;2024-02-15T02:43:12;10.43;;;5.10;;
65533;SDS011;53640;55.838;37.184;2024-02-15T02:45:39;9.77;;;4.82;;
65533;SDS011;53640;55.838;37.184;2024-02-15T02:48:07;10.48;;;5.55;;
65533;SDS011;53640;55.838;37.184;2024-02-15T02:50:35;11.35;;;4.60;;
65533;SDS011;53640;55.838;37.184;2024-02-15T02:53:01;14.13;;;5.32;;
65533;SDS011;53640;55.838;37.184;2024-02-15T02:55:28;10.65;;;5.68;;
65533;SDS011;53640;55.838;37.184;2024-02-15T02:57:54;11.07;;;5.30;;
65533;SDS011;53640;55.838;37.184;2024-02-15T03:00:21;13.02;;;5.88;;
65533;SDS011;53640;55.838;37.184;2024-02-15T03:02:48;10.18;;;5.20;;
65533;SDS011;53640;55.838;37.184;2024-02-15T03:05:15;11.40;;;5.15;;
65533;SDS011;53640;55.838;37.184;2024-02-15T03:07:41;12.43;;;5.10;;
65533;SDS011;53640;55.838;37.184;2024-02-15T03:10:09;11.43;;;5.07;;
65533;SDS011;53640;55.838;37.184;2024-02-15T03:12:40;11.40;;;5.20;;
65533;SDS011;53640;55.838;37.184;2024-02-15T03:15:09;15.05;;;5.95;;
65533;SDS011;53640;55.838;37.184;2024-02-15T03:17:43;16.40;;;5.45;;
65533;SDS011;53640;55.838;37.184;2024-02-15T03:20:12;14.07;;;5.32;;
65533;SDS011;53640;55.838;37.184;2024-02-15T03:22:54;13.65;;;5.70;;
65533;SDS011;53640;55.838;37.184;2024-02-15T03:25:22;10.25;;;5.00;;
65533;SDS011;53640;55.838;37.184;2024-02-15T03:27:54;9.70;;;5.07;;
65533;SDS011;53640;55.838;37.184;2024-02-15T03:30:24;11.60;;;5.07;;
65533;SDS011;53640;55.838;37.184;2024-02-15T03:32:53;12.25;;;5.55;;
65533;SDS011;53640;55.838;37.184;2024-02-15T03:35:21;14.20;;;5.47;;
65533;SDS011;53640;55.838;37.184;2024-02-15T03:37:50;12.30;;;5.20;;
65533;SDS011;53640;55.838;37.184;2024-02-15T03:40:20;14.65;;;5.10;;
65533;SDS011;53640;55.838;37.184;2024-02-15T03:42:49;10.60;;;4.95;;
65533;SDS011;53640;55.838;37.184;2024-02-15T03:45:19;11.23;;;5.47;;
65533;SDS011;53640;55.838;37.184;2024-02-15T03:48:00;11.73;;;4.88;;
65533;SDS011;53640;55.838;37.184;2024-02-15T03:50:30;11.18;;;5.00;;
65533;SDS011;53640;55.838;37.184;2024-02-15T03:53:00;14.30;;;5.78;;
65533;SDS011;53640;55.838;37.184;2024-02-15T03:55:27;11.93;;;5.25;;
65533;SDS011;53640;55.838;37.184;2024-02-15T03:57:54;9.70;;;4.93;;
65533;SDS011;53640;55.838;37.184;2024-02-15T04:00:22;13.95;;;6.03;;
65533;SDS011;53640;55.838;37.184;2024-02-15T04:02:50;8.50;;;4.68;;
65533;SDS011;53640;55.838;37.184;2024-02-15T04:05:17;14.98;;;5.32;;
65533;SDS011;53640;55.838;37.184;2024-02-15T04:07:44;10.50;;;5.43;;
65533;SDS011;53640;55.838;37.184;2024-02-15T04:10:14;13.65;;;5.70;;
65533;SDS011;53640;55.838;37.184;2024-02-15T04:13:03;13.15;;;5.72;;
65533;SDS011;53640;55.838;37.184;2024-02-15T04:15:31;9.88;;;4.85;;
65533;SDS011;53640;55.838;37.184;2024-02-15T04:17:59;10.70;;;4.70;;
65533;SDS011;53640;55.838;37.184;2024-02-15T04:20:27;13.50;;;5.05;;
65533;SDS011;53640;55.838;37.184;2024-02-15T04:22:55;12.07;;;5.45;;
65533;SDS011;53640;55.838;37.184;2024-02-15T04:25:23;10.10;;;4.88;;
65533;SDS011;53640;55.838;37.184;2024-02-15T04:27:54;10.63;;;5.32;;
65533;SDS011;53640;55.838;37.184;2024-02-15T04:30:20;10.60;;;4.95;;
65533;SDS011;53640;55.838;37.184;2024-02-15T04:32:49;11.18;;;5.25;;
65533;SDS011;53640;55.838;37.184;2024-02-15T04:35:17;12.05;;;5.03;;
65533;SDS011;53640;55.838;37.184;2024-02-15T04:37:47;12.30;;;5.53;;
65533;SDS011;53640;55.838;37.184;2024-02-15T04:40:16;10.30;;;5.13;;
65533;SDS011;53640;55.838;37.184;2024-02-15T04:42:48;10.05;;;4.63;;
65533;SDS011;53640;55.838;37.184;2024-02-15T04:45:15;12.25;;;5.20;;
65533;SDS011;53640;55.838;37.184;2024-02-15T04:47:57;13.27;;;6.10;;
65533;SDS011;53640;55.838;37.184;2024-02-15T04:50:28;10.18;;;4.53;;
65533;SDS011;53640;55.838;37.184;2024-02-15T04:52:55;11.80;;;5.75;;
65533;SDS011;53640;55.838;37.184;2024-02-15T04:55:22;12.15;;;5.43;;
65533;SDS011;53640;55.838;37.184;2024-02-15T04:57:49;10.35;;;4.72;;
65533;SDS011;53640;55.838;37.184;2024-02-15T05:00:22;9.63;;;4.85;;
65533;SDS011;53640;55.838;37.184;2024-02-15T05:02:52;12.30;;;5.65;;
65533;SDS011;53640;55.838;37.184;2024-02-15T05:05:19;8.88;;;4.53;;
65533;SDS011;53640;55.838;37.184;2024-02-15T05:07:46;12.40;;;5.13;;
65533;SDS011;53640;55.838;37.184;2024-02-15T05:10:14;11.80;;;5.13;;
65533;SDS011;53640;55.838;37.184;2024-02-15T05:12:43;9.45;;;4.43;;
65533;SDS011;53640;55.838;37.184;2024-02-15T05:15:10;9.27;;;4.45;;
65533;SDS011;53640;55.838;37.184;2024-02-15T05:17:38;11.93;;;5.43;;
65533;SDS011;53640;55.838;37.184;2024-02-15T05:20:07;9.48;;;4.63;;
65533;SDS011;53640;55.838;37.184;2024-02-15T05:22:40;12.65;;;5.15;;
65533;SDS011;53640;55.838;37.184;2024-02-15T05:25:09;10.45;;;5.05;;
65533;SDS011;53640;55.838;37.184;2024-02-15T05:27:38;9.88;;;5.47;;
65533;SDS011;53640;55.838;37.184;2024-02-15T05:30:07;11.77;;;4.90;;
65533;SDS011;53640;55.838;37.184;2024-02-15T05:32:34;14.65;;;5.80;;
65533;SDS011;53640;55.838;37.184;2024-02-15T05:37:38;18.27;;;5.00;;
65533;SDS011;53640;55.838;37.184;2024-02-15T05:40:05;10.77;;;5.07;;
65533;SDS011;53640;55.838;37.184;2024-02-15T05:42:33;12.93;;;5.53;;
65533;SDS011;53640;55.838;37.184;2024-02-15T05:47:55;9.40;;;4.53;;
65533;SDS011;53640;55.838;37.184;2024-02-15T05:50:22;12.27;;;5.10;;
65533;SDS011;53640;55.838;37.184;2024-02-15T05:52:49;10.40;;;5.13;;
65533;SDS011;53640;55.838;37.184;2024-02-15T05:55:18;13.45;;;5.25;;
65533;SDS011;53640;55.838;37.184;2024-02-15T05:57:45;12.77;;;5.95;;
65533;SDS011;53640;55.838;37.184;2024-02-15T06:00:12;9.73;;;4.97;;
65533;SDS011;53640;55.838;37.184;2024-02-15T06:02:41;11.25;;;5.50;;
65533;SDS011;53640;55.838;37.184;2024-02-15T06:05:09;11.30;;;4.97;;
65533;SDS011;53640;55.838;37.184;2024-02-15T06:07:37;12.52;;;5.90;;
65533;SDS011;53640;55.838;37.184;2024-02-15T06:10:03;11.35;;;5.30;;
65533;SDS011;53640;55.838;37.184;2024-02-15T06:12:30;11.13;;;5.82;;
65533;SDS011;53640;55.838;37.184;2024-02-15T06:14:56;12.30;;;5.88;;
65533;SDS011;53640;55.838;37.184;2024-02-15T06:17:25;8.70;;;5.20;;
65533;SDS011;53640;55.838;37.184;2024-02-15T06:19:54;10.45;;;5.07;;
65533;SDS011;53640;55.838;37.184;2024-02-15T06:22:21;14.43;;;5.68;;
65533;SDS011;53640;55.838;37.184;2024-02-15T06:24:48;9.82;;;5.03;;
65533;SDS011;53640;55.838;37.184;2024-02-15T06:27:15;11.95;;;5.40;;
65533;SDS011;53640;55.838;37.184;2024-02-15T06:29:41;12.77;;;5.95;;
65533;SDS011;53640;55.838;37.184;2024-02-15T06:32:26;13.02;;;5.70;;
65533;SDS011;53640;55.838;37.184;2024-02-15T06:35:11;12.35;;;5.38;;
65533;SDS011;53640;55.838;37.184;2024-02-15T06:37:59;13.05;;;5.18;;
65533;SDS011;53640;55.838;37.184;2024-02-15T06:40:45;8.65;;;4.47;;
65533;SDS011;53640;55.838;37.184;2024-02-15T06:43:11;14.85;;;5.40;;
65533;SDS011;53640;55.838;37.184;2024-02-15T06:45:39;18.48;;;5.80;;
65533;SDS011;53640;55.838;37.184;2024-02-15T06:48:10;15.38;;;5.20;;
65533;SDS011;53640;55.838;37.184;2024-02-15T06:50:36;13.18;;;6.05;;
65533;SDS011;53640;55.838;37.184;2024-02-15T06:53:03;14.77;;;5.20;;
65533;SDS011;53640;55.838;37.184;2024-02-15T06:55:29;11.05;;;5.35;;
65533;SDS011;53640;55.838;37.184;2024-02-15T06:57:56;11.10;;;5.20;;
65533;SDS011;53640;55.838;37.184;2024-02-15T07:00:22;10.00;;;5.00;;
65533;SDS011;53640;55.838;37.184;2024-02-15T07:02:50;14.40;;;6.32;;
65533;SDS011;53640;55.838;37.184;2024-02-15T07:05:21;14.20;;;5.82;;
65533;SDS011;53640;55.838;37.184;2024-02-15T07:07:49;11.52;;;5.47;;
65533;SDS011;53640;55.838;37.184;2024-02-15T07:10:18;9.73;;;5.45;;
65533;SDS011;53640;55.838;37.184;2024-02-15T07:12:44;10.68;;;5.15;;
65533;SDS011;53640;55.838;37.184;2024-02-15T07:15:11;10.70;;;5.53;;
65533;SDS011;53640;55.838;37.184;2024-02-15T07:17:37;12.32;;;5.50;;
65533;SDS011;53640;55.838;37.184;2024-02-15T07:20:06;11.57;;;5.50;;
65533;SDS011;53640;55.838;37.184;2024-02-15T07:22:36;12.40;;;6.03;;
65533;SDS011;53640;55.838;37.184;2024-02-15T07:25:04;15.45;;;5.68;;
65533;SDS011;53640;55.838;37.184;2024-02-15T07:27:31;14.15;;;6.03;;
65533;SDS011;53640;55.838;37.184;2024-02-15T07:30:00;15.27;;;6.28;;
65533;SDS011;53640;55.838;37.184;2024-02-15T07:32:31;11.70;;;5.63;;
65533;SDS011;53640;55.838;37.184;2024-02-15T07:35:04;14.25;;;5.78;;
65533;SDS011;53640;55.838;37.184;2024-02-15T07:37:33;12.25;;;5.70;;
65533;SDS011;53640;55.838;37.184;2024-02-15T07:40:00;12.00;;;5.65;;
65533;SDS011;53640;55.838;37.184;2024-02-15T07:42:29;12.93;;;5.90;;
65533;SDS011;53640;55.838;37.184;2024-02-15T07:45:01;13.52;;;5.95;;
65533;SDS011;53640;55.838;37.184;2024-02-15T07:47:28;14.38;;;6.10;;
65533;SDS011;53640;55.838;37.184;2024-02-15T07:49:55;11.90;;;5.28;;
65533;SDS011;53640;55.838;37.184;2024-02-15T07:52:22;13.95;;;6.57;;
65533;SDS011;53640;55.838;37.184;2024-02-15T07:54:48;20.42;;;6.38;;
65533;SDS011;53640;55.838;37.184;2024-02-15T07:57:14;12.70;;;5.85;;
65533;SDS011;53640;55.838;37.184;2024-02-15T07:59:41;14.00;;;5.97;;
65533;SDS011;53640;55.838;37.184;2024-02-15T08:02:08;11.63;;;5.85;;
65533;SDS011;53640;55.838;37.184;2024-02-15T08:04:34;16.17;;;5.85;;
65533;SDS011;53640;55.838;37.184;2024-02-15T08:07:06;14.93;;;6.43;;
65533;SDS011;53640;55.838;37.184;2024-02-15T08:09:37;12.32;;;5.80;;
65533;SDS011;53640;55.838;37.184;2024-02-15T08:12:03;19.08;;;6.30;;
65533;SDS011;53640;55.838;37.184;2024-02-15T08:14:31;15.88;;;5.97;;
65533;SDS011;53640;55.838;37.184;2024-02-15T08:16:58;14.07;;;5.60;;
65533;SDS011;53640;55.838;37.184;2024-02-15T08:19:24;13.05;;;5.78;;
65533;SDS011;53640;55.838;37.184;2024-02-15T08:21:50;11.43;;;5.30;;
65533;SDS011;53640;55.838;37.184;2024-02-15T08:24:19;10.95;;;5.18;;
65533;SDS011;53640;55.838;37.184;2024-02-15T08:26:46;14.00;;;5.55;;
65533;SDS011;53640;55.838;37.184;2024-02-15T08:29:13;10.07;;;5.18;;
65533;SDS011;53640;55.838;37.184;2024-02-15T08:31:40;11.73;;;6.20;;
65533;SDS011;53640;55.838;37.184;2024-02-15T08:34:07;14.30;;;6.18;;
65533;SDS011;53640;55.838;37.184;2024-02-15T08:36:36;12.45;;;5.55;;
65533;SDS011;53640;55.838;37.184;2024-02-15T08:39:02;13.95;;;5.72;;
65533;SDS011;53640;55.838;37.184;2024-02-15T08:41:31;13.50;;;6.15;;
65533;SDS011;53640;55.838;37.184;2024-02-15T08:43:58;10.77;;;5.45;;
65533;SDS011;53640;55.838;37.184;2024-02-15T08:46:27;11.30;;;5.20;;
65533;SDS011;53640;55.838;37.184;2024-02-15T08:48:57;12.48;;;5.72;;
65533;SDS011;53640;55.838;37.184;2024-02-15T08:51:23;14.65;;;5.97;;
65533;SDS011;53640;55.838;37.184;2024-02-15T08:53:50;12.10;;;5.18;;
65533;SDS011;53640;55.838;37.184;2024-02-15T08:56:17;12.45;;;6.15;;
65533;SDS011;53640;55.838;37.184;2024-02-15T08:58:43;15.65;;;6.53;;
65533;SDS011;53640;55.838;37.184;2024-02-15T09:01:10;13.55;;;5.82;;
65533;SDS011;53640;55.838;37.184;2024-02-15T09:03:39;15.57;;;5.88;;
65533;SDS011;53640;55.838;37.184;2024-02-15T09:06:05;17.15;;;5.43;;
65533;SDS011;53640;55.838;37.184;2024-02-15T09:08:33;16.75;;;5.95;;
65533;SDS011;53640;55.838;37.184;2024-02-15T09:10:59;11.70;;;5.25;;
65533;SDS011;53640;55.838;37.184;2024-02-15T09:13:27;11.57;;;6.03;;
65533;SDS011;53640;55.838;37.184;2024-02-15T09:15:53;16.25;;;6.45;;
65533;SDS011;53640;55.838;37.184;2024-02-15T09:18:23;16.17;;;6.97;;
65533;SDS011;53640;55.838;37.184;2024-02-15T09:20:49;12.45;;;5.97;;
65533;SDS011;53640;55.838;37.184;2024-02-15T09:23:21;14.25;;;6.60;;
65533;SDS011;53640;55.838;37.184;2024-02-15T09:25:49;14.35;;;5.68;;
65533;SDS011;53640;55.838;37.184;2024-02-15T09:28:17;15.43;;;6.53;;
65533;SDS011;53640;55.838;37.184;2024-02-15T09:30:48;15.43;;;6.30;;
65533;SDS011;53640;55.838;37.184;2024-02-15T09:33:21;13.52;;;5.75;;
65533;SDS011;53640;55.838;37.184;2024-02-15T09:35:51;13.30;;;6.10;;
65533;SDS011;53640;55.838;37.184;2024-02-15T09:38:21;14.18;;;6.10;;
65533;SDS011;53640;55.838;37.184;2024-02-15T09:40:50;16.38;;;6.60;;
65533;SDS011;53640;55.838;37.184;2024-02-15T09:43:17;14.98;;;5.45;;
65533;SDS011;53640;55.838;37.184;2024-02-15T09:45:44;12.30;;;5.75;;
65533;SDS011;53640;55.838;37.184;2024-02-15T09:48:13;14.40;;;6.45;;
65533;SDS011;53640;55.838;37.184;2024-02-15T09:50:44;16.20;;;6.75;;
65533;SDS011;53640;55.838;37.184;2024-02-15T09:53:14;13.95;;;6.28;;
65533;SDS011;53640;55.838;37.184;2024-02-15T09:55:41;20.10;;;5.93;;
65533;SDS011;53640;55.838;37.184;2024-02-15T09:58:11;15.80;;;6.45;;
65533;SDS011;53640;55.838;37.184;2024-02-15T10:00:40;11.07;;;6.03;;
65533;SDS011;53640;55.838;37.184;2024-02-15T10:03:06;18.75;;;7.25;;
65533;SDS011;53640;55.838;37.184;2024-02-15T10:05:38;12.07;;;5.85;;
65533;SDS011;53640;55.838;37.184;2024-02-15T10:08:08;14.35;;;6.60;;
65533;SDS011;53640;55.838;37.184;2024-02-15T10:10:37;14.65;;;6.32;;
65533;SDS011;53640;55.838;37.184;2024-02-15T10:13:03;15.07;;;5.68;;
65533;SDS011;53640;55.838;37.184;2024-02-15T10:15:40;10.65;;;5.95;;
65533;SDS011;53640;55.838;37.184;2024-02-15T10:18:07;11.27;;;5.35;;
65533;SDS011;53640;55.838;37.184;2024-02-15T10:20:36;11.90;;;5.78;;
65533;SDS011;53640;55.838;37.184;2024-02-15T10:25:34;19.98;;;6.75;;
65533;SDS011;53640;55.838;37.184;2024-02-15T10:28:02;14.55;;;6.38;;
65533;SDS011;53640;55.838;37.184;2024-02-15T10:30:35;13.07;;;6.45;;
65533;SDS011;53640;55.838;37.184;2024-02-15T10:33:03;13.70;;;6.20;;
65533;SDS011;53640;55.838;37.184;2024-02-15T10:35:30;12.10;;;6.05;;
65533;SDS011;53640;55.838;37.184;2024-02-15T10:38:06;12.38;;;6.20;;
65533;SDS011;53640;55.838;37.184;2024-02-15T10:40:34;13.30;;;6.80;;
65533;SDS011;53640;55.838;37.184;2024-02-15T10:43:03;15.05;;;6.25;;
65533;SDS011;53640;55.838;37.184;2024-02-15T10:45:34;16.15;;;7.35;;
65533;SDS011;53640;55.838;37.184;2024-02-15T10:48:09;12.98;;;6.68;;
65533;SDS011;53640;55.838;37.184;2024-02-15T10:50:36;14.82;;;6.05;;
65533;SDS011;53640;55.838;37.184;2024-02-15T10:53:14;15.63;;;7.47;;
65533;SDS011;53640;55.838;37.184;2024-02-15T10:56:12;15.60;;;6.18;;
65533;SDS011;53640;55.838;37.184;2024-02-15T10:58:55;11.75;;;5.97;;
65533;SDS011;53640;55.838;37.184;2024-02-15T11:01:34;16.63;;;6.50;;
65533;SDS011;53640;55.838;37.184;2024-02-15T11:04:05;13.57;;;6.57;;
65533;SDS011;53640;55.838;37.184;2024-02-15T11:06:35;19.45;;;7.88;;
65533;SDS011;53640;55.838;37.184;2024-02-15T11:09:09;15.73;;;6.88;;
65533;SDS011;53640;55.838;37.184;2024-02-15T11:11:39;14.95;;;6.05;;
65533;SDS011;53640;55.838;37.184;2024-02-15T11:16:49;16.13;;;6.30;;
65533;SDS011;53640;55.838;37.184;2024-02-15T11:21:58;16.38;;;7.07;;
65533;SDS011;53640;55.838;37.184;2024-02-15T11:24:29;13.93;;;7.13;;
65533;SDS011;53640;55.838;37.184;2024-02-15T11:27:02;16.67;;;7.10;;
65533;SDS011;53640;55.838;37.184;2024-02-15T11:35:10;13.05;;;6.68;;
65533;SDS011;53640;55.838;37.184;2024-02-15T11:43:08;15.98;;;7.60;;
65533;SDS011;53640;55.838;37.184;2024-02-15T11:45:37;18.20;;;7.28;;
65533;SDS011;53640;55.838;37.184;2024-02-15T11:48:09;17.65;;;7.03;;
65533;SDS011;53640;55.838;37.184;2024-02-15T11:50:37;16.73;;;7.28;;
65533;SDS011;53640;55.838;37.184;2024-02-15T11:53:09;18.88;;;7.25;;
65533;SDS011;53640;55.838;37.184;2024-02-15T11:55:39;17.45;;;7.90;;
65533;SDS011;53640;55.838;37.184;2024-02-15T11:58:07;17.35;;;7.55;;
65533;SDS011;53640;55.838;37.184;2024-02-15T12:00:35;12.52;;;7.15;;
65533;SDS011;53640;55.838;37.184;2024-02-15T12:03:21;18.77;;;7.53;;
65533;SDS011;53640;55.838;37.184;2024-02-15T12:06:06;18.42;;;7.60;;
65533;SDS011;53640;55.838;37.184;2024-02-15T12:08:53;13.23;;;6.85;;
65533;SDS011;53640;55.838;37.184;2024-02-15T12:11:41;18.77;;;7.90;;
65533;SDS011;53640;55.838;37.184;2024-02-15T12:14:27;14.60;;;5.93;;
65533;SDS011;53640;55.838;37.184;2024-02-15T12:17:13;10.25;;;5.78;;
65533;SDS011;53640;55.838;37.184;2024-02-15T12:20:02;15.10;;;7.45;;
65533;SDS011;53640;55.838;37.184;2024-02-15T12:22:40;14.43;;;7.40;;
65533;SDS011;53640;55.838;37.184;2024-02-15T12:25:14;14.27;;;7.40;;
65533;SDS011;53640;55.838;37.184;2024-02-15T12:27:43;24.33;;;7.43;;
65533;SDS011;53640;55.838;37.184;2024-02-15T12:30:14;18.27;;;6.97;;
65533;SDS011;53640;55.838;37.184;2024-02-15T12:32:53;16.65;;;8.18;;
65533;SDS011;53640;55.838;37.184;2024-02-15T12:35:36;18.88;;;8.00;;
65533;SDS011;53640;55.838;37.184;2024-02-15T12:38:03;15.82;;;7.97;;
65533;SDS011;53640;55.838;37.184;2024-02-15T12:40:35;12.70;;;6.55;;
65533;SDS011;53640;55.838;37.184;2024-02-15T12:43:08;12.80;;;6.35;;
65533;SDS011;53640;55.838;37.184;2024-02-15T12:45:43;14.60;;;7.32;;
65533;SDS011;53640;55.838;37.184;2024-02-15T12:48:10;18.65;;;8.13;;
65533;SDS011;53640;55.838;37.184;2024-02-15T12:50:37;19.65;;;8.60;;
65533;SDS011;53640;55.838;37.184;2024-02-15T12:53:05;20.40;;;8.35;;
65533;SDS011;53640;55.838;37.184;2024-02-15T12:55:34;17.20;;;7.40;;
65533;SDS011;53640;55.838;37.184;2024-02-15T12:58:04;16.55;;;7.13;;
65533;SDS011;53640;55.838;37.184;2024-02-15T13:00:36;14.18;;;7.45;;
65533;SDS011;53640;55.838;37.184;2024-02-15T13:03:06;23.67;;;7.70;;
65533;SDS011;53640;55.838;37.184;2024-02-15T13:05:36;16.90;;;7.55;;
65533;SDS011;53640;55.838;37.184;2024-02-15T13:08:04;15.35;;;7.10;;
65533;SDS011;53640;55.838;37.184;2024-02-15T13:10:36;19.95;;;8.93;;
65533;SDS011;53640;55.838;37.184;2024-02-15T13:13:03;21.10;;;8.23;;
65533;SDS011;53640;55.838;37.184;2024-02-15T13:15:31;16.67;;;7.95;;
65533;SDS011;53640;55.838;37.184;2024-02-15T13:18:00;17.23;;;7.43;;
65533;SDS011;53640;55.838;37.184;2024-02-15T13:20:30;18.15;;;7.88;;
65533;SDS011;53640;55.838;37.184;2024-02-15T13:23:02;18.17;;;6.75;;
65533;SDS011;53640;55.838;37.184;2024-02-15T13:25:35;15.73;;;7.18;;
65533;SDS011;53640;55.838;37.184;2024-02-15T13:28:03;18.65;;;7.72;;
65533;SDS011;53640;55.838;37.184;2024-02-15T13:30:30;18.77;;;8.48;;
65533;SDS011;53640;55.838;37.184;2024-02-15T13:32:57;17.10;;;7.43;;
65533;SDS011;53640;55.838;37.184;2024-02-15T13:35:24;14.75;;;6.82;;
65533;SDS011;53640;55.838;37.184;2024-02-15T13:37:50;15.95;;;6.88;;
65533;SDS011;53640;55.838;37.184;2024-02-15T13:40:18;18.42;;;8.23;;
65533;SDS011;53640;55.838;37.184;2024-02-15T13:42:48;16.05;;;7.13;;
65533;SDS011;53640;55.838;37.184;2024-02-15T13:45:22;13.07;;;6.15;;
65533;SDS011;53640;55.838;37.184;2024-02-15T13:47:52;15.38;;;6.28;;
65533;SDS011;53640;55.838;37.184;2024-02-15T13:50:21;16.85;;;7.07;;
65533;SDS011;53640;55.838;37.184;2024-02-15T13:52:49;18.05;;;6.70;;
65533;SDS011;53640;55.838;37.184;2024-02-15T13:55:17;19.75;;;7.75;;
65533;SDS011;53640;55.838;37.184;2024-02-15T13:57:46;17.90;;;7.47;;
65533;SDS011;53640;55.838;37.184;2024-02-15T14:00:14;19.10;;;8.15;;
65533;SDS011;53640;55.838;37.184;2024-02-15T14:05:17;17.42;;;7.30;;
65533;SDS011;53640;55.838;37.184;2024-02-15T14:07:51;16.13;;;6.97;;
65533;SDS011;53640;55.838;37.184;2024-02-15T14:10:21;20.10;;;7.18;;
65533;SDS011;53640;55.838;37.184;2024-02-15T14:12:53;19.63;;;7.75;;
65533;SDS011;53640;55.838;37.184;2024-02-15T14:15:31;14.95;;;7.45;;
65533;SDS011;53640;55.838;37.184;2024-02-15T14:18:05;19.23;;;7.35;;
65533;SDS011;53640;55.838;37.184;2024-02-15T14:20:36;14.87;;;6.93;;
65533;SDS011;53640;55.838;37.184;2024-02-15T14:23:03;16.75;;;7.35;;
65533;SDS011;53640;55.838;37.184;2024-02-15T14:25:32;20.40;;;8.13;;
65533;SDS011;53640;55.838;37.184;2024-02-15T14:27:58;16.30;;;6.93;;
65533;SDS011;53640;55.838;37.184;2024-02-15T14:30:25;17.58;;;7.35;;
65533;SDS011;53640;55.838;37.184;2024-02-15T14:33:10;18.02;;;7.07;;
65533;SDS011;53640;55.838;37.184;2024-02-15T14:35:41;16.83;;;7.10;;
65533;SDS011;53640;55.838;37.184;2024-02-15T14:38:12;16.55;;;7.18;;
65533;SDS011;53640;55.838;37.184;2024-02-15T14:40:41;20.35;;;7.65;;
65533;SDS011;53640;55.838;37.184;2024-02-15T14:43:11;14.13;;;6.43;;
65533;SDS011;53640;55.838;37.184;2024-02-15T14:45:41;20.15;;;7.82;;
65533;SDS011;53640;55.838;37.184;2024-02-15T14:48:08;16.70;;;7.57;;
65533;SDS011;53640;55.838;37.184;2024-02-15T14:50:42;16.58;;;7.38;;
65533;SDS011;53640;55.838;37.184;2024-02-15T14:53:09;17.70;;;7.40;;
65533;SDS011;53640;55.838;37.184;2024-02-15T14:55:36;17.02;;;7.22;;
65533;SDS011;53640;55.838;37.184;2024-02-15T14:58:14;18.15;;;7.68;;
65533;SDS011;53640;55.838;37.184;2024-02-15T15:00:46;16.48;;;6.25;;
65533;SDS011;53640;55.838;37.184;2024-02-15T15:03:13;17.10;;;6.88;;